[ENDED] Hong Kong Escape! @ VHHH - 212330ZDEC18

  • Aircraft and Livery: B789 QANTAS

  • Route: VHHH - YSSY

  • Time of Departure: 23:30Z/21DEC18

  • Server:Expert.


  • Additional Information:

Flight Plan

VHHH PORPA PORSH RAMEN OCEAN SKATE GRUPA 2045N/11602E NOMAN MUMOT AVMUP TAREM BIGBI TADEL CIA OLIVA VOTAS MIA BANOS PABLO CONDE SAGRA MOLOC MANOK MCT DAHOY BOHOL YAYIN BALIN GONIL JOFER SIVAL DAO EDLOR DAPEL SADAN SAMGE OLENG OPABA ROOKI 1529S/14145E GULOP BIDAG DOLIB OMUBI PUDUR 2803S/14836E 3019S/14950E 3130S/15031E 3202S/15050E CORKY SADLO BOREE BEROW OVILS YSSY

Weather VHHH 212130Z 08012KT 9000 FEW025 21/17 Q1016 NOSIG YSSY 212130Z 21021KT 9999 FEW015 SCT020 BKN040 18/15 Q1011 NOSIG

Flight Level 37000
Plan Distance 4063
Flight Time 8:33
Block Fuel 51401 kgs
Climb Profile 250/310/85
Descent Profile 85/310/250

Happy Landings

David

QFA0014

1 Like

@anon31652286 in the group flight category you can only post flights (events) up to 2hrs in advance. The events category is where there is longer notice.

Thanks to those who made it, great flight, bumpy approach.

1 Like

This topic was automatically closed 12 hours after the last reply. New replies are no longer allowed.